createdAt,value
2023-08-11T00:00:06.779Z,36.80
2023-08-11T00:01:06.977Z,36.81
2023-08-11T00:02:06.877Z,36.72
2023-08-11T00:03:06.945Z,36.74
2023-08-11T00:04:06.956Z,36.78
2023-08-11T00:05:07.002Z,36.79
2023-08-11T00:06:07.041Z,36.81
2023-08-11T00:07:07.295Z,36.77
2023-08-11T00:08:07.124Z,36.81
2023-08-11T00:09:07.166Z,36.77
2023-08-11T00:10:07.193Z,36.82
2023-08-11T00:11:07.265Z,36.77
2023-08-11T00:12:07.310Z,36.76
2023-08-11T00:13:07.325Z,36.81
2023-08-11T00:14:07.368Z,36.77
2023-08-11T00:15:07.416Z,36.81
2023-08-11T00:16:07.477Z,36.81
2023-08-11T00:17:07.705Z,36.78
2023-08-11T00:18:07.545Z,36.81
2023-08-11T00:19:07.576Z,36.83
2023-08-11T00:20:07.631Z,36.78
2023-08-11T00:21:07.667Z,36.79
2023-08-11T00:22:07.720Z,36.79
2023-08-11T00:23:07.766Z,36.78
2023-08-11T00:24:07.801Z,36.82
2023-08-11T00:25:07.861Z,36.81
2023-08-11T00:26:07.876Z,36.82
2023-08-11T00:27:08.231Z,36.80
2023-08-11T00:28:07.976Z,36.83
2023-08-11T00:29:08.024Z,36.80
2023-08-11T00:30:08.075Z,36.86
2023-08-11T00:31:08.150Z,36.86
2023-08-11T00:32:08.177Z,36.82
2023-08-11T00:33:08.239Z,36.83
2023-08-11T00:34:08.226Z,36.85
2023-08-11T00:35:08.299Z,36.81
2023-08-11T00:36:08.347Z,36.83
2023-08-11T00:37:08.577Z,36.80
2023-08-11T00:38:08.429Z,36.83
2023-08-11T00:39:08.453Z,36.88
2023-08-11T00:40:08.525Z,36.80
2023-08-11T00:41:08.574Z,36.85
2023-08-11T00:42:08.591Z,36.84
2023-08-11T00:43:08.644Z,36.87
2023-08-11T00:44:08.697Z,36.86
2023-08-11T00:45:08.726Z,36.86
2023-08-11T00:46:08.781Z,36.83
2023-08-11T00:47:09.000Z,36.83
2023-08-11T00:48:08.867Z,36.81
2023-08-11T00:49:08.912Z,36.82
2023-08-11T00:50:08.958Z,36.79
2023-08-11T00:51:08.996Z,36.84
2023-08-11T00:52:09.059Z,36.86
2023-08-11T00:53:09.131Z,36.84
2023-08-11T00:54:09.131Z,36.84
2023-08-11T00:55:09.224Z,36.88
2023-08-11T00:56:09.258Z,36.83
2023-08-11T00:57:09.349Z,36.83
2023-08-11T00:58:09.339Z,36.81
2023-08-11T00:59:09.352Z,36.88
2023-08-11T01:00:09.484Z,36.83
2023-08-11T01:01:09.469Z,36.90
2023-08-11T01:02:09.502Z,36.76
2023-08-11T01:03:09.561Z,36.84
2023-08-11T01:04:09.590Z,36.87
2023-08-11T01:05:09.627Z,36.86
2023-08-11T01:06:09.728Z,36.86
2023-08-11T01:07:09.930Z,36.80
2023-08-11T01:08:09.780Z,36.81
2023-08-11T01:09:09.820Z,36.84
2023-08-11T01:10:09.862Z,36.81
2023-08-11T01:11:09.899Z,36.86
2023-08-11T01:12:09.966Z,36.81
2023-08-11T01:13:10.250Z,36.87
2023-08-11T01:14:10.055Z,36.83
2023-08-11T01:15:10.091Z,36.83
2023-08-11T01:16:10.130Z,36.85
2023-08-11T01:17:10.450Z,36.83
2023-08-11T01:18:10.253Z,36.88
2023-08-11T01:19:10.269Z,36.83
2023-08-11T01:20:10.342Z,36.85
2023-08-11T01:21:10.352Z,36.81
2023-08-11T01:22:10.407Z,36.84
2023-08-11T01:23:10.452Z,36.87
2023-08-11T01:24:10.561Z,36.84
2023-08-11T01:25:10.581Z,36.84
2023-08-11T01:26:10.679Z,36.86
2023-08-11T01:27:10.713Z,36.86
2023-08-11T01:28:10.701Z,36.85
2023-08-11T01:29:10.752Z,36.82
2023-08-11T01:30:10.781Z,36.81
2023-08-11T01:31:10.863Z,36.82
2023-08-11T01:32:10.878Z,36.83
2023-08-11T01:33:10.928Z,36.84
2023-08-11T01:34:10.966Z,36.81
2023-08-11T01:35:11.368Z,36.85
2023-08-11T01:36:11.046Z,36.85
2023-08-11T01:37:11.388Z,36.84
2023-08-11T01:38:11.389Z,36.84
2023-08-11T01:39:11.198Z,36.85
2023-08-11T01:40:11.232Z,36.82
2023-08-11T01:41:11.290Z,36.84
2023-08-11T01:42:11.374Z,36.76
2023-08-11T01:43:11.445Z,36.76
2023-08-11T01:44:11.414Z,36.87
2023-08-11T01:45:11.458Z,36.84
2023-08-11T01:46:11.534Z,36.80
2023-08-11T01:47:11.549Z,36.80
2023-08-11T01:48:11.672Z,36.81
2023-08-11T01:49:11.654Z,36.84
2023-08-11T01:50:11.719Z,36.83
2023-08-11T01:51:11.748Z,36.82
2023-08-11T01:52:11.796Z,36.88
2023-08-11T01:53:11.822Z,36.80
2023-08-11T01:54:11.888Z,36.74
2023-08-11T01:55:11.950Z,36.79
2023-08-11T01:56:12.026Z,36.79
2023-08-11T01:57:12.041Z,36.75
2023-08-11T01:58:12.107Z,36.83
2023-08-11T01:59:12.140Z,36.78
2023-08-11T02:00:12.169Z,36.75
2023-08-11T02:01:12.218Z,36.79
2023-08-11T02:02:12.254Z,36.76
2023-08-11T02:03:12.412Z,36.79
2023-08-11T02:04:12.384Z,36.78
2023-08-11T02:05:12.400Z,36.81
2023-08-11T02:06:12.465Z,36.74
2023-08-11T02:07:12.509Z,36.74
2023-08-11T02:08:12.564Z,36.79
2023-08-11T02:09:12.620Z,36.78
2023-08-11T02:10:12.637Z,36.78
2023-08-11T02:11:12.719Z,36.78
2023-08-11T02:12:12.739Z,36.78
2023-08-11T02:13:12.809Z,36.76
2023-08-11T02:14:12.858Z,36.79
2023-08-11T02:15:12.889Z,36.78
2023-08-11T02:16:12.955Z,36.77
2023-08-11T02:17:12.970Z,36.75
2023-08-11T02:18:13.087Z,36.80
2023-08-11T02:19:13.071Z,36.79
2023-08-11T02:20:13.075Z,36.81
2023-08-11T02:21:13.149Z,36.76
2023-08-11T02:22:13.165Z,36.76
2023-08-11T02:23:13.245Z,36.76
2023-08-11T02:24:13.258Z,36.75
2023-08-11T02:25:13.330Z,36.72
2023-08-11T02:26:13.394Z,36.74
2023-08-11T02:27:13.413Z,36.78
2023-08-11T02:28:13.448Z,36.75
2023-08-11T02:29:13.505Z,36.75
2023-08-11T02:30:13.533Z,36.76
2023-08-11T02:31:13.626Z,36.72
2023-08-11T02:32:13.654Z,36.75
2023-08-11T02:33:13.710Z,36.75
2023-08-11T02:34:13.741Z,36.72
2023-08-11T02:35:13.771Z,36.75
2023-08-11T02:36:13.792Z,36.76
2023-08-11T02:37:13.860Z,36.67
2023-08-11T02:38:13.874Z,36.74
2023-08-11T02:39:13.949Z,36.72
2023-08-11T02:40:13.969Z,36.76
2023-08-11T02:41:13.998Z,36.72
2023-08-11T02:42:14.049Z,36.71
2023-08-11T02:43:14.127Z,36.76
2023-08-11T02:44:14.149Z,36.77
2023-08-11T02:45:14.181Z,36.74
2023-08-11T02:46:14.316Z,36.76
2023-08-11T02:47:14.275Z,36.72
2023-08-11T02:48:14.382Z,36.75
2023-08-11T02:49:14.391Z,36.74
2023-08-11T02:50:14.601Z,36.72
2023-08-11T02:51:14.482Z,36.71
2023-08-11T02:52:14.547Z,36.76
2023-08-11T02:53:14.577Z,36.74
2023-08-11T02:54:14.633Z,36.72
2023-08-11T02:55:14.671Z,36.74
2023-08-11T02:56:14.725Z,36.71
2023-08-11T02:57:14.788Z,36.67
2023-08-11T02:58:14.830Z,36.73
2023-08-11T02:59:14.882Z,36.74
2023-08-11T03:00:14.949Z,36.69
2023-08-11T03:01:14.999Z,36.70
2023-08-11T03:02:15.058Z,36.71
2023-08-11T03:03:15.164Z,36.68
2023-08-11T03:04:15.149Z,36.70
2023-08-11T03:05:15.206Z,36.72
2023-08-11T03:06:15.217Z,36.72
2023-08-11T03:07:15.287Z,36.72
2023-08-11T03:08:15.332Z,36.75
2023-08-11T03:09:15.393Z,36.69
2023-08-11T03:10:15.445Z,36.69
2023-08-11T03:11:15.484Z,36.74
2023-08-11T03:12:15.520Z,36.72
2023-08-11T03:13:15.588Z,36.75
2023-08-11T03:14:15.679Z,36.76
2023-08-11T03:15:15.676Z,36.71
2023-08-11T03:16:15.756Z,36.71
2023-08-11T03:17:15.766Z,36.71
2023-08-11T03:18:15.821Z,36.69
2023-08-11T03:19:15.867Z,36.68
2023-08-11T03:20:15.938Z,36.71
2023-08-11T03:21:20.308Z,36.69
2023-08-11T03:22:15.967Z,36.67
2023-08-11T03:23:15.962Z,36.71
2023-08-11T03:24:15.958Z,36.67
2023-08-11T03:25:15.942Z,36.69
2023-08-11T03:26:15.963Z,36.67
2023-08-11T03:27:15.929Z,36.70
2023-08-11T03:28:15.936Z,36.64
2023-08-11T03:29:15.900Z,36.68
2023-08-11T03:30:15.924Z,36.67
2023-08-11T03:31:15.908Z,36.67
2023-08-11T03:32:15.935Z,36.65
2023-08-11T03:33:17.603Z,36.67
2023-08-11T03:34:15.885Z,36.71
2023-08-11T03:35:15.888Z,36.64
2023-08-11T03:36:15.881Z,36.64
2023-08-11T03:37:15.891Z,36.65
2023-08-11T03:38:15.855Z,36.63
2023-08-11T03:39:15.846Z,36.68
2023-08-11T03:40:15.855Z,36.68
2023-08-11T03:41:15.833Z,36.63
2023-08-11T03:42:16.062Z,36.63
2023-08-11T03:43:15.825Z,36.60
2023-08-11T03:44:15.822Z,36.62
2023-08-11T03:45:15.860Z,36.63
2023-08-11T03:46:15.846Z,36.67
2023-08-11T03:47:15.804Z,36.63
2023-08-11T03:48:15.800Z,36.64
2023-08-11T03:49:15.798Z,36.60
2023-08-11T03:50:15.781Z,36.63
2023-08-11T03:51:15.778Z,36.59
2023-08-11T03:52:15.765Z,36.63
2023-08-11T03:53:15.812Z,36.64
2023-08-11T03:54:15.774Z,36.65
2023-08-11T03:55:15.768Z,36.66
2023-08-11T03:56:15.742Z,36.64
2023-08-11T03:57:15.760Z,36.58
2023-08-11T03:58:15.727Z,36.63
2023-08-11T03:59:15.751Z,36.59
2023-08-11T04:00:15.836Z,36.56
2023-08-11T04:01:15.790Z,36.64
2023-08-11T04:02:15.700Z,36.62
2023-08-11T04:03:15.817Z,36.63
2023-08-11T04:04:15.692Z,36.64
2023-08-11T04:05:15.715Z,36.65
2023-08-11T04:06:15.697Z,36.62
2023-08-11T04:07:15.700Z,36.63
2023-08-11T04:08:15.685Z,36.62
2023-08-11T04:09:15.678Z,36.56
2023-08-11T04:10:15.669Z,36.60
2023-08-11T04:11:15.638Z,36.60
2023-08-11T04:12:15.652Z,36.54
2023-08-11T04:13:15.661Z,36.59
2023-08-11T04:14:15.615Z,36.59
2023-08-11T04:15:15.632Z,36.55
2023-08-11T04:16:15.661Z,36.59
2023-08-11T04:17:15.697Z,36.60
2023-08-11T04:18:15.746Z,36.60
2023-08-11T04:19:15.809Z,36.58
2023-08-11T04:20:15.876Z,36.58
2023-08-11T04:21:15.903Z,36.57
2023-08-11T04:22:20.214Z,36.62
2023-08-11T04:23:16.980Z,36.54
2023-08-11T04:24:15.975Z,36.56
2023-08-11T04:25:15.987Z,36.54
2023-08-11T04:26:15.947Z,36.57
2023-08-11T04:27:15.918Z,36.56
2023-08-11T04:28:15.918Z,36.59
2023-08-11T04:29:15.949Z,36.55
2023-08-11T04:30:15.915Z,36.59
2023-08-11T04:31:15.989Z,36.57
2023-08-11T04:32:15.894Z,36.55
2023-08-11T04:33:16.001Z,36.56
2023-08-11T04:34:16.007Z,36.52
2023-08-11T04:35:16.062Z,36.51
2023-08-11T04:36:16.129Z,36.49
2023-08-11T04:37:16.163Z,36.54
2023-08-11T04:38:16.211Z,36.52
2023-08-11T04:39:16.292Z,36.48
2023-08-11T04:40:16.332Z,36.49
2023-08-11T04:41:16.381Z,36.50
2023-08-11T04:42:16.437Z,36.48
2023-08-11T04:43:16.477Z,36.48
2023-08-11T04:44:16.527Z,36.50
2023-08-11T04:45:16.620Z,36.50
2023-08-11T04:46:16.662Z,36.44
2023-08-11T04:47:16.704Z,36.47
2023-08-11T04:48:16.758Z,36.43
2023-08-11T04:49:16.785Z,36.46
2023-08-11T04:50:16.844Z,36.47
2023-08-11T04:51:16.890Z,36.44
2023-08-11T04:52:16.941Z,36.42
2023-08-11T04:53:16.989Z,36.47
2023-08-11T04:54:17.024Z,36.44
2023-08-11T04:55:17.113Z,36.44
2023-08-11T04:56:17.129Z,36.43
2023-08-11T04:57:17.178Z,36.43
2023-08-11T04:58:17.224Z,36.44
2023-08-11T04:59:17.836Z,36.41
2023-08-11T05:00:17.359Z,36.42
2023-08-11T05:01:17.442Z,36.39
2023-08-11T05:02:17.444Z,36.36
2023-08-11T05:03:17.582Z,36.37
2023-08-11T05:04:17.570Z,36.36
2023-08-11T05:05:17.585Z,36.38
2023-08-11T05:06:17.659Z,36.34
2023-08-11T05:07:17.678Z,36.35
2023-08-11T05:08:17.717Z,36.37
2023-08-11T05:09:17.769Z,36.37
2023-08-11T05:10:17.814Z,36.32
2023-08-11T05:11:17.871Z,36.29
2023-08-11T05:12:17.947Z,36.29
2023-08-11T05:13:17.995Z,36.32
2023-08-11T05:14:18.013Z,36.24
2023-08-11T05:15:18.092Z,36.32
2023-08-11T05:16:18.130Z,36.28
2023-08-11T05:17:18.154Z,36.24
2023-08-11T05:18:18.180Z,36.22
2023-08-11T05:19:18.212Z,36.26
2023-08-11T05:20:18.284Z,36.23
2023-08-11T05:21:18.315Z,36.23
2023-08-11T05:22:18.367Z,36.23
2023-08-11T05:23:18.387Z,36.20
2023-08-11T05:24:18.453Z,36.23
2023-08-11T05:25:18.512Z,36.22
2023-08-11T05:26:18.548Z,36.20
2023-08-11T05:27:18.574Z,36.16
2023-08-11T05:28:18.656Z,36.19
2023-08-11T05:29:18.675Z,36.20
2023-08-11T05:30:18.726Z,36.23
2023-08-11T05:31:18.819Z,36.18
2023-08-11T05:32:18.824Z,36.15
2023-08-11T05:33:18.843Z,36.13
2023-08-11T05:34:18.890Z,36.14
2023-08-11T05:35:18.921Z,36.14
2023-08-11T05:36:18.999Z,36.09
2023-08-11T05:37:18.995Z,36.09
2023-08-11T05:38:19.066Z,36.11
2023-08-11T05:39:19.092Z,36.06
2023-08-11T05:40:19.126Z,36.05
2023-08-11T05:41:19.176Z,36.10
2023-08-11T05:42:19.204Z,36.05
2023-08-11T05:43:19.258Z,36.02
2023-08-11T05:44:19.313Z,36.04
2023-08-11T05:45:19.335Z,36.05
2023-08-11T05:46:19.372Z,36.00
2023-08-11T05:47:19.428Z,36.01
2023-08-11T05:48:19.448Z,36.01
2023-08-11T05:49:19.475Z,36.01
2023-08-11T05:50:19.499Z,36.01
2023-08-11T05:51:19.578Z,35.99
2023-08-11T05:52:19.576Z,35.96
2023-08-11T05:53:19.603Z,35.97
2023-08-11T05:54:19.661Z,36.00
2023-08-11T05:55:19.702Z,35.92
2023-08-11T05:56:19.729Z,35.96
2023-08-11T05:57:19.745Z,35.92
2023-08-11T05:58:19.767Z,35.91
2023-08-11T05:59:19.820Z,35.88
2023-08-11T06:00:19.842Z,35.89
2023-08-11T06:01:19.908Z,35.89
2023-08-11T06:02:19.936Z,35.86
2023-08-11T06:03:19.946Z,35.84
2023-08-11T06:04:19.966Z,35.82
2023-08-11T06:05:19.991Z,35.86
2023-08-11T06:06:20.055Z,35.83
2023-08-11T06:07:20.072Z,35.85
2023-08-11T06:08:20.099Z,35.84
2023-08-11T06:09:20.167Z,35.87
2023-08-11T06:10:20.178Z,35.85
2023-08-11T06:11:20.209Z,35.79
2023-08-11T06:12:20.278Z,35.79
2023-08-11T06:13:20.347Z,35.83
2023-08-11T06:14:20.334Z,35.83
2023-08-11T06:15:20.365Z,35.81
2023-08-11T06:16:20.424Z,35.77
2023-08-11T06:17:20.450Z,35.82
2023-08-11T06:18:20.484Z,35.81
2023-08-11T06:19:20.501Z,35.84
2023-08-11T06:20:26.599Z,35.82
2023-08-11T06:21:21.566Z,35.79
2023-08-11T06:22:20.548Z,35.78
2023-08-11T06:23:20.532Z,35.78
2023-08-11T06:24:20.540Z,35.78
2023-08-11T06:25:20.509Z,35.73
2023-08-11T06:26:20.518Z,35.74
2023-08-11T06:27:20.535Z,35.77
2023-08-11T06:28:20.511Z,35.78
2023-08-11T06:29:20.494Z,35.81
2023-08-11T06:30:20.518Z,35.82
2023-08-11T06:31:20.515Z,35.78
2023-08-11T06:32:20.471Z,35.83
2023-08-11T06:33:20.465Z,35.77
2023-08-11T06:34:20.491Z,35.81
2023-08-11T06:35:20.516Z,35.79
2023-08-11T06:36:20.940Z,35.77
2023-08-11T06:37:20.606Z,35.77
2023-08-11T06:38:20.644Z,35.75
2023-08-11T06:39:20.682Z,35.79
2023-08-11T06:40:20.704Z,35.76
2023-08-11T06:41:20.744Z,35.81
2023-08-11T06:42:20.810Z,35.76
2023-08-11T06:43:20.831Z,35.77
2023-08-11T06:44:20.872Z,35.77
2023-08-11T06:45:20.904Z,35.81
2023-08-11T06:46:21.011Z,35.73
2023-08-11T06:47:20.984Z,35.81
2023-08-11T06:48:21.042Z,35.80
2023-08-11T06:49:21.084Z,35.73
2023-08-11T06:50:21.122Z,35.81
2023-08-11T06:51:21.140Z,35.80
2023-08-11T06:52:21.182Z,35.79
2023-08-11T06:53:21.207Z,35.81
2023-08-11T06:54:21.249Z,35.81
2023-08-11T06:55:21.270Z,35.82
2023-08-11T06:56:21.313Z,35.79
2023-08-11T06:57:21.448Z,35.77
2023-08-11T06:58:22.798Z,35.78
2023-08-11T06:59:21.360Z,35.75
2023-08-11T07:00:21.357Z,35.78
2023-08-11T07:01:21.402Z,35.77
2023-08-11T07:02:21.420Z,35.75
2023-08-11T07:03:21.453Z,35.77
2023-08-11T07:04:21.349Z,35.77
2023-08-11T07:05:21.309Z,35.77
2023-08-11T07:06:21.335Z,35.74
2023-08-11T07:07:21.384Z,35.69
2023-08-11T07:08:21.325Z,35.72
2023-08-11T07:09:21.321Z,35.77
2023-08-11T07:10:21.280Z,35.69
2023-08-11T07:11:21.308Z,35.78
2023-08-11T07:12:21.292Z,35.74
2023-08-11T07:13:21.310Z,35.74
2023-08-11T07:14:21.259Z,35.73
2023-08-11T07:15:21.253Z,35.73
2023-08-11T07:16:21.373Z,35.73
2023-08-11T07:17:21.243Z,35.75
2023-08-11T07:18:21.260Z,35.75
2023-08-11T07:19:21.253Z,35.78
2023-08-11T07:20:21.234Z,35.69
2023-08-11T07:21:21.206Z,35.73
2023-08-11T07:22:21.255Z,35.75
2023-08-11T07:23:21.214Z,35.72
2023-08-11T07:24:21.220Z,35.71
2023-08-11T07:25:21.214Z,35.71
2023-08-11T07:26:21.235Z,35.68
2023-08-11T07:27:21.195Z,35.68
2023-08-11T07:28:21.187Z,35.70
2023-08-11T07:29:21.178Z,35.71
2023-08-11T07:30:21.150Z,35.64
2023-08-11T07:31:21.228Z,35.67
2023-08-11T07:32:21.131Z,35.62
2023-08-11T07:33:21.194Z,35.66
2023-08-11T07:34:21.141Z,35.64
2023-08-11T07:35:21.108Z,35.61
2023-08-11T07:36:21.203Z,35.65
2023-08-11T07:37:21.127Z,35.63
2023-08-11T07:38:21.489Z,35.65
2023-08-11T07:39:23.856Z,35.67
2023-08-11T07:40:21.096Z,35.64
2023-08-11T07:41:21.093Z,35.60
2023-08-11T07:42:21.072Z,35.56
2023-08-11T07:43:21.077Z,35.60
2023-08-11T07:44:21.108Z,35.60
2023-08-11T07:45:21.123Z,35.58
2023-08-11T07:46:21.130Z,35.58
2023-08-11T07:47:21.032Z,35.61
2023-08-11T07:48:21.044Z,35.62
2023-08-11T07:49:21.044Z,35.58
2023-08-11T07:50:21.028Z,35.60
2023-08-11T07:51:21.048Z,35.57
2023-08-11T07:52:21.002Z,35.60
2023-08-11T07:53:21.017Z,35.61
2023-08-11T07:54:21.238Z,35.64
2023-08-11T07:55:21.198Z,35.61
2023-08-11T07:56:21.029Z,35.57
2023-08-11T07:57:20.967Z,35.58
2023-08-11T07:58:20.968Z,35.62
2023-08-11T07:59:20.991Z,35.60
2023-08-11T08:00:21.022Z,35.57
2023-08-11T08:01:21.053Z,35.60
2023-08-11T08:02:20.945Z,35.58
2023-08-11T08:03:21.045Z,35.58
2023-08-11T08:04:20.966Z,35.55
2023-08-11T08:05:21.909Z,35.55
2023-08-11T08:06:20.973Z,35.57
2023-08-11T08:07:20.916Z,35.56
2023-08-11T08:08:20.905Z,35.59
2023-08-11T08:09:20.896Z,35.55
2023-08-11T08:10:20.905Z,35.58
2023-08-11T08:11:20.906Z,35.56
2023-08-11T08:12:20.900Z,35.56
2023-08-11T08:13:20.895Z,35.55
2023-08-11T08:14:20.896Z,35.55
2023-08-11T08:15:20.908Z,35.54
2023-08-11T08:16:20.956Z,35.56
2023-08-11T08:17:20.840Z,35.52
2023-08-11T08:18:20.867Z,35.55
2023-08-11T08:19:20.831Z,35.54
2023-08-11T08:20:20.855Z,35.52
2023-08-11T08:21:20.857Z,35.59
2023-08-11T08:22:20.831Z,35.58
2023-08-11T08:23:20.837Z,35.56
2023-08-11T08:24:20.858Z,35.54
2023-08-11T08:25:20.794Z,35.52
2023-08-11T08:26:20.793Z,35.55
2023-08-11T08:27:20.780Z,35.56
2023-08-11T08:28:20.779Z,35.55
2023-08-11T08:29:20.760Z,35.55
2023-08-11T08:30:20.843Z,35.55
2023-08-11T08:31:20.761Z,35.50
2023-08-11T08:32:20.744Z,35.51
2023-08-11T08:33:20.819Z,35.51
2023-08-11T08:34:20.725Z,35.53
2023-08-11T08:35:20.717Z,35.54
2023-08-11T08:36:20.752Z,35.49
2023-08-11T08:37:20.728Z,35.45
2023-08-11T08:38:20.716Z,35.49
2023-08-11T08:39:20.716Z,35.45
2023-08-11T08:40:20.701Z,35.45
2023-08-11T08:41:20.705Z,35.48
2023-08-11T08:42:20.670Z,35.48
2023-08-11T08:43:20.683Z,35.50
2023-08-11T08:44:20.675Z,35.48
2023-08-11T08:45:20.678Z,35.48
2023-08-11T08:46:20.664Z,35.46
2023-08-11T08:47:20.670Z,35.44
2023-08-11T08:48:20.654Z,35.46
2023-08-11T08:49:20.643Z,35.44
2023-08-11T08:50:20.644Z,35.45
2023-08-11T08:51:20.620Z,35.46
2023-08-11T08:52:20.611Z,35.44
2023-08-11T08:53:20.594Z,35.43
2023-08-11T08:54:20.608Z,35.40
2023-08-11T08:55:20.607Z,35.39
2023-08-11T08:56:20.578Z,35.38
2023-08-11T08:57:20.717Z,35.41
2023-08-11T08:58:20.582Z,35.41
2023-08-11T08:59:20.583Z,35.41
2023-08-11T09:00:20.572Z,35.39
2023-08-11T09:01:20.621Z,35.39
2023-08-11T09:02:20.646Z,35.40
2023-08-11T09:03:20.727Z,35.39
2023-08-11T09:04:20.742Z,35.38
2023-08-11T09:05:20.634Z,35.41
2023-08-11T09:06:20.668Z,35.39
2023-08-11T09:07:20.679Z,35.39
2023-08-11T09:08:20.723Z,35.44
2023-08-11T09:09:20.711Z,35.43
2023-08-11T09:10:20.705Z,35.45
2023-08-11T09:11:20.737Z,35.47
2023-08-11T09:12:20.791Z,35.45
2023-08-11T09:13:20.762Z,35.44
2023-08-11T09:14:20.800Z,35.42
2023-08-11T09:15:20.810Z,35.43
2023-08-11T09:16:20.876Z,35.44
2023-08-11T09:17:20.853Z,35.43
2023-08-11T09:18:20.903Z,35.44
2023-08-11T09:19:20.880Z,35.41
2023-08-11T09:20:20.881Z,35.41
2023-08-11T09:21:20.956Z,35.44
2023-08-11T09:22:20.926Z,35.41
2023-08-11T09:23:21.352Z,35.43
2023-08-11T09:24:20.998Z,35.43
2023-08-11T09:25:20.987Z,35.41
2023-08-11T09:26:21.017Z,35.41
2023-08-11T09:27:21.081Z,35.40
2023-08-11T09:28:21.040Z,35.42
2023-08-11T09:29:21.118Z,35.44
2023-08-11T09:30:21.053Z,35.39
2023-08-11T09:31:21.114Z,35.36
2023-08-11T09:32:21.100Z,35.40
2023-08-11T09:33:21.119Z,35.40
2023-08-11T09:34:21.138Z,35.35
2023-08-11T09:35:21.113Z,35.36
2023-08-11T09:36:21.140Z,35.40
2023-08-11T09:37:21.164Z,35.39
2023-08-11T09:38:21.980Z,35.39
2023-08-11T09:39:21.178Z,35.39
2023-08-11T09:40:21.177Z,35.37
2023-08-11T09:41:21.202Z,35.37
2023-08-11T09:42:21.203Z,35.41
2023-08-11T09:43:21.233Z,35.40
2023-08-11T09:44:21.325Z,35.38
2023-08-11T09:45:21.265Z,35.40
2023-08-11T09:46:26.667Z,35.42
2023-08-11T09:47:23.226Z,35.42
2023-08-11T09:48:21.284Z,35.38
2023-08-11T09:49:21.286Z,35.41
2023-08-11T09:50:21.235Z,35.39
2023-08-11T09:51:21.237Z,35.38
2023-08-11T09:52:21.246Z,35.41
2023-08-11T09:53:21.250Z,35.35
2023-08-11T09:54:21.232Z,35.38
2023-08-11T09:55:21.249Z,35.35
2023-08-11T09:56:21.210Z,35.38
2023-08-11T09:57:21.200Z,35.33
2023-08-11T09:58:21.236Z,35.32
2023-08-11T09:59:21.178Z,35.40
2023-08-11T10:00:21.183Z,35.33
2023-08-11T10:01:22.412Z,35.33
2023-08-11T10:02:21.182Z,35.37
2023-08-11T10:03:21.264Z,35.32
2023-08-11T10:04:21.147Z,35.32
2023-08-11T10:05:21.176Z,35.35
2023-08-11T10:06:21.192Z,35.28
2023-08-11T10:07:21.212Z,35.33
2023-08-11T10:08:21.228Z,35.30
2023-08-11T10:09:21.240Z,35.30
2023-08-11T10:10:21.253Z,35.28
2023-08-11T10:11:21.261Z,35.28
2023-08-11T10:12:21.274Z,35.27
2023-08-11T10:13:21.298Z,35.28
2023-08-11T10:14:21.316Z,35.28
2023-08-11T10:15:21.341Z,35.26
2023-08-11T10:16:21.432Z,35.26
2023-08-11T10:17:21.427Z,35.28
2023-08-11T10:18:21.403Z,35.23
2023-08-11T10:19:21.387Z,35.26
2023-08-11T10:20:21.379Z,35.23
2023-08-11T10:21:21.409Z,35.19
2023-08-11T10:22:21.412Z,35.27
2023-08-11T10:23:21.462Z,35.19
2023-08-11T10:24:21.426Z,35.22
2023-08-11T10:25:21.416Z,35.19
2023-08-11T10:26:21.399Z,35.22
2023-08-11T10:27:21.431Z,35.26
2023-08-11T10:28:21.422Z,35.19
2023-08-11T10:29:21.512Z,35.21
2023-08-11T10:30:21.433Z,35.22
2023-08-11T10:31:21.458Z,35.18
2023-08-11T10:32:21.436Z,35.21
2023-08-11T10:33:21.418Z,35.17
2023-08-11T10:34:21.438Z,35.17
2023-08-11T10:35:21.461Z,35.16
2023-08-11T10:36:21.436Z,35.15
2023-08-11T10:37:21.418Z,35.12
2023-08-11T10:38:21.420Z,35.15
2023-08-11T10:39:21.447Z,35.18
2023-08-11T10:40:21.462Z,35.13
2023-08-11T10:41:21.458Z,35.13
2023-08-11T10:42:21.456Z,35.08
2023-08-11T10:43:21.447Z,35.11
2023-08-11T10:44:21.495Z,35.10
2023-08-11T10:45:21.565Z,35.08
2023-08-11T10:46:21.594Z,35.14
2023-08-11T10:47:21.546Z,35.07
2023-08-11T10:48:21.615Z,35.10
2023-08-11T10:49:21.611Z,35.08
2023-08-11T10:50:21.651Z,35.05
2023-08-11T10:51:21.672Z,35.06
2023-08-11T10:52:21.669Z,34.98
2023-08-11T10:53:21.803Z,35.03
2023-08-11T10:54:21.774Z,34.97
2023-08-11T10:55:21.848Z,34.99
2023-08-11T10:56:21.906Z,34.99
2023-08-11T10:57:21.886Z,34.95
2023-08-11T10:58:21.943Z,34.96
2023-08-11T10:59:22.074Z,34.98
2023-08-11T11:00:22.039Z,34.95
2023-08-11T11:01:22.150Z,34.94
2023-08-11T11:02:22.132Z,34.89
2023-08-11T11:03:22.200Z,34.94
2023-08-11T11:04:22.276Z,34.92
2023-08-11T11:05:22.321Z,34.90
2023-08-11T11:06:22.393Z,34.85
2023-08-11T11:07:22.441Z,34.87
2023-08-11T11:08:22.496Z,34.88
2023-08-11T11:09:23.125Z,34.90
2023-08-11T11:10:24.184Z,34.89
2023-08-11T11:11:23.673Z,34.87
2023-08-11T11:12:22.619Z,34.84
2023-08-11T11:13:22.614Z,34.84
2023-08-11T11:14:22.669Z,34.86
2023-08-11T11:15:22.624Z,34.83
2023-08-11T11:16:22.657Z,34.83
2023-08-11T11:17:22.627Z,34.84
2023-08-11T11:18:22.624Z,34.81
2023-08-11T11:19:22.639Z,34.81
2023-08-11T11:20:22.697Z,34.78
2023-08-11T11:21:22.761Z,34.79
2023-08-11T11:22:22.809Z,34.79
2023-08-11T11:23:22.907Z,34.75
2023-08-11T11:24:22.953Z,34.75
2023-08-11T11:25:23.019Z,34.78
2023-08-11T11:26:23.084Z,34.79
2023-08-11T11:27:23.155Z,34.75
2023-08-11T11:28:23.185Z,34.78
2023-08-11T11:29:23.267Z,34.77
2023-08-11T11:30:23.393Z,34.73
2023-08-11T11:31:23.396Z,34.72
2023-08-11T11:32:23.475Z,34.77
2023-08-11T11:33:23.513Z,34.73
2023-08-11T11:34:23.736Z,34.74
2023-08-11T11:35:23.617Z,34.75
2023-08-11T11:36:23.681Z,34.75
2023-08-11T11:37:23.763Z,34.77
2023-08-11T11:38:23.815Z,34.75
2023-08-11T11:39:23.858Z,34.73
2023-08-11T11:40:23.931Z,34.79
2023-08-11T11:41:23.973Z,34.69
2023-08-11T11:42:24.042Z,34.73
2023-08-11T11:43:24.102Z,34.72
2023-08-11T11:44:24.155Z,34.74
2023-08-11T11:45:24.180Z,34.72
2023-08-11T11:46:24.351Z,34.69
2023-08-11T11:47:24.303Z,34.72
2023-08-11T11:48:24.363Z,34.71
2023-08-11T11:49:30.234Z,34.72
2023-08-11T11:50:25.446Z,34.71
2023-08-11T11:51:24.429Z,34.68
2023-08-11T11:52:24.406Z,34.70
2023-08-11T11:53:24.427Z,34.70
2023-08-11T11:54:24.403Z,34.71
2023-08-11T11:55:24.407Z,34.68
2023-08-11T11:56:24.404Z,34.71
2023-08-11T11:57:24.393Z,34.70
2023-08-11T11:58:24.426Z,34.71
2023-08-11T11:59:24.480Z,34.71
2023-08-11T12:00:24.624Z,34.66
2023-08-11T12:01:24.661Z,34.70
2023-08-11T12:02:24.685Z,34.71
2023-08-11T12:03:24.700Z,34.75
2023-08-11T12:04:24.833Z,34.68
2023-08-11T12:05:24.845Z,34.72
2023-08-11T12:06:24.871Z,34.74
2023-08-11T12:07:24.953Z,34.76
2023-08-11T12:08:25.007Z,34.75
2023-08-11T12:09:25.066Z,34.75
2023-08-11T12:10:25.160Z,34.68
2023-08-11T12:11:25.209Z,34.70
2023-08-11T12:12:25.226Z,34.76
2023-08-11T12:13:25.289Z,34.76
2023-08-11T12:14:25.359Z,34.75
2023-08-11T12:15:25.405Z,34.72
2023-08-11T12:16:25.587Z,34.75
2023-08-11T12:17:25.546Z,34.75
2023-08-11T12:18:25.589Z,34.79
2023-08-11T12:19:26.548Z,34.68
2023-08-11T12:20:25.740Z,34.71
2023-08-11T12:21:25.755Z,34.75
2023-08-11T12:22:25.833Z,34.76
2023-08-11T12:23:25.887Z,34.76
2023-08-11T12:24:25.965Z,34.80
2023-08-11T12:25:26.013Z,34.83
2023-08-11T12:26:26.047Z,34.79
2023-08-11T12:27:26.115Z,34.78
2023-08-11T12:28:26.181Z,34.80
2023-08-11T12:29:26.209Z,34.80
2023-08-11T12:30:26.282Z,34.80
2023-08-11T12:31:26.334Z,34.83
2023-08-11T12:32:26.457Z,34.79
2023-08-11T12:33:26.553Z,34.78
2023-08-11T12:34:26.505Z,34.75
2023-08-11T12:35:26.564Z,34.81
2023-08-11T12:36:26.593Z,34.86
2023-08-11T12:37:26.651Z,34.78
2023-08-11T12:38:26.706Z,34.80
2023-08-11T12:39:26.838Z,34.80
2023-08-11T12:40:26.821Z,34.80
2023-08-11T12:41:26.868Z,34.82
2023-08-11T12:42:26.913Z,34.84
2023-08-11T12:43:26.975Z,34.86
2023-08-11T12:44:27.012Z,34.84
2023-08-11T12:45:27.072Z,34.84
2023-08-11T12:46:27.140Z,34.83
2023-08-11T12:47:27.205Z,34.83
2023-08-11T12:48:27.222Z,34.84
2023-08-11T12:49:27.260Z,34.85
2023-08-11T12:50:27.313Z,34.84
2023-08-11T12:51:27.340Z,34.85
2023-08-11T12:52:27.425Z,34.88